Terminal Aerodrome Forecast
Issued by NWS North Platte, NE

Home | Current Version | Previous Version | Text Only | Print | Product List | Glossary On
Versions: 1 2 3 4 5 6 7 8 9 10 11 12 13 14 15 16 17 18 19
000
FTUS43 KLBF 291140
TAFLBF
TAF
KLBF 291140Z 2912/3012 VRB02KT 3SM BR SCT002
      TEMPO 2912/2914 1/2SM FG BKN002
     FM291400 26004KT P6SM SCT120
     FM291800 20007KT P6SM SKC
     FM300000 15005KT P6SM SKC=

USA.gov is the U.S. government's official web portal to all federal, state and local government web resources and services.